Time;durP1;ratioP1;P1;durP2;ratioP2;P2;SDS_P1;SDS_P2;PMS_P1;PMS_P2;Temp;Humidity;BMP_temperature;BMP_pressure;BME280_temperature;BME280_humidity;BME280_pressure;Samples;Min_cycle;Max_cycle;Signal;HPM_P1;HPM_P2
2022/04/14 00:00:17;;;;;;;3.60;0.90;;;24.30;99.90;;;;;;5070168;28;20168;-67
2022/04/14 00:02:45;;;;;;;2.30;0.60;;;23.20;99.90;;;;;;5051485;28;20181;-68
2022/04/14 00:05:13;;;;;;;2.03;0.80;;;22.90;99.90;;;;;;5053378;28;20176;-67
2022/04/14 00:07:40;;;;;;;3.60;0.87;;;22.50;99.90;;;;;;5070176;28;20199;-67
2022/04/14 00:10:08;;;;;;;5.40;1.00;;;22.00;99.90;;;;;;5071331;28;20204;-69
2022/04/14 00:12:36;;;;;;;3.13;0.77;;;22.00;99.90;;;;;;5061208;28;20277;-66
2022/04/14 00:15:05;;;;;;;2.70;0.87;;;21.70;99.90;;;;;;5051217;28;20234;-67
2022/04/14 00:17:36;;;;;;;2.33;0.90;;;22.10;99.90;;;;;;5071549;28;20179;-67
2022/04/14 00:20:07;;;;;;;3.23;0.83;;;23.30;99.90;;;;;;5051895;28;20250;-68
2022/04/14 00:22:36;;;;;;;2.10;0.63;;;23.70;99.90;;;;;;5068178;28;20195;-68
2022/04/14 00:25:04;;;;;;;6.63;0.67;;;24.10;99.90;;;;;;5069820;28;20535;-68
2022/04/14 00:27:32;;;;;;;6.03;0.97;;;25.00;99.90;;;;;;5064005;28;20310;-68
2022/04/14 00:30:00;;;;;;;4.27;0.97;;;25.60;99.90;;;;;;5051310;28;20181;-68
2022/04/14 00:32:27;;;;;;;2.40;0.80;;;25.20;99.90;;;;;;5060817;28;20208;-68
2022/04/14 00:34:55;;;;;;;4.53;0.70;;;25.10;99.90;;;;;;5071179;28;20180;-68
2022/04/14 00:37:23;;;;;;;6.37;0.80;;;24.90;99.90;;;;;;5053539;28;20314;-67
2022/04/14 00:39:51;;;;;;;4.00;1.00;;;25.30;99.90;;;;;;5065200;28;20192;-67
2022/04/14 00:42:18;;;;;;;5.37;0.73;;;25.50;99.90;;;;;;5069894;28;20668;-68
2022/04/14 00:44:46;;;;;;;3.53;0.80;;;25.10;99.90;;;;;;5072580;28;20168;-67
2022/04/14 00:47:15;;;;;;;3.07;0.80;;;25.30;99.90;;;;;;5056540;28;20187;-67
2022/04/14 00:49:43;;;;;;;5.43;0.83;;;26.30;99.90;;;;;;5066759;28;20544;-67
2022/04/14 00:52:11;;;;;;;2.97;0.80;;;26.00;99.90;;;;;;5074435;28;20292;-67
2022/04/14 00:54:38;;;;;;;3.23;0.80;;;25.70;99.90;;;;;;5073662;28;20168;-67
2022/04/14 00:57:07;;;;;;;6.40;0.57;;;24.90;99.90;;;;;;5054454;28;20185;-67
2022/04/14 00:59:35;;;;;;;3.63;0.60;;;24.20;99.90;;;;;;5065668;28;20718;-67
2022/04/14 01:02:03;;;;;;;2.33;0.67;;;23.50;99.90;;;;;;5074087;28;20587;-67
2022/04/14 01:04:32;;;;;;;3.47;1.00;;;23.30;99.90;;;;;;5074221;28;20281;-67
2022/04/14 01:07:01;;;;;;;3.60;0.90;;;23.10;99.90;;;;;;5073820;28;20180;-67
2022/04/14 01:09:29;;;;;;;5.40;1.03;;;22.80;99.90;;;;;;5073484;28;20186;-67
2022/04/14 01:11:57;;;;;;;3.53;0.70;;;22.50;99.90;;;;;;5074533;28;20204;-68
2022/04/14 01:14:36;;;;;;;2.97;0.70;;;22.70;99.90;;;;;;5067019;28;20180;-68
2022/04/14 01:17:09;;;;;;;5.20;1.20;;;22.80;99.90;;;;;;5062415;28;20222;-68
2022/04/14 01:19:38;;;;;;;4.30;1.07;;;22.60;99.90;;;;;;5074585;28;20248;-68
2022/04/14 01:22:24;;;;;;;3.87;0.70;;;22.30;99.90;;;;;;5074802;28;20186;-68
2022/04/14 01:24:57;;;;;;;5.73;0.93;;;22.30;99.90;;;;;;5075122;28;20175;-68
2022/04/14 01:27:26;;;;;;;3.53;0.90;;;22.40;99.90;;;;;;5075094;28;20217;-68
2022/04/14 01:29:54;;;;;;;3.70;0.80;;;22.60;99.90;;;;;;5074939;28;20175;-69
2022/04/14 01:32:25;;;;;;;3.70;0.70;;;23.20;99.90;;;;;;5075050;28;20207;-68
2022/04/14 01:34:53;;;;;;;1.40;0.67;;;23.40;99.90;;;;;;5075054;28;20181;-69
2022/04/14 01:37:21;;;;;;;2.70;0.63;;;23.20;99.90;;;;;;5075215;28;20172;-68
2022/04/14 01:39:49;;;;;;;6.40;1.13;;;23.30;99.90;;;;;;5075077;28;20180;-68
2022/04/14 01:42:16;;;;;;;4.20;0.50;;;23.40;99.90;;;;;;5074963;28;20654;-68
2022/04/14 01:44:44;;;;;;;10.23;1.60;;;24.10;99.90;;;;;;5074717;28;20182;-69
2022/04/14 01:47:12;;;;;;;1.87;0.60;;;24.90;99.90;;;;;;5074957;28;20179;-68
2022/04/14 01:49:40;;;;;;;2.03;0.70;;;25.30;99.90;;;;;;5074838;28;20207;-69
2022/04/14 01:52:07;;;;;;;2.90;0.80;;;25.10;99.90;;;;;;5074754;28;20231;-68
2022/04/14 01:54:35;;;;;;;0.83;0.50;;;26.20;99.90;;;;;;5074762;28;20172;-69
2022/04/14 01:57:03;;;;;;;2.97;0.80;;;26.70;99.90;;;;;;5074215;28;20271;-68
2022/04/14 01:59:31;;;;;;;3.60;0.73;;;25.50;99.90;;;;;;5074661;28;20180;-69
2022/04/14 02:01:58;;;;;;;3.33;0.60;;;25.70;99.90;;;;;;5074754;28;20174;-68
2022/04/14 02:04:26;;;;;;;2.60;0.70;;;25.00;99.90;;;;;;5074580;28;20176;-68
2022/04/14 02:06:54;;;;;;;1.33;0.60;;;24.10;99.90;;;;;;5074710;28;20172;-68
2022/04/14 02:09:22;;;;;;;3.03;0.73;;;23.90;99.90;;;;;;5074243;28;20540;-68
2022/04/14 02:11:49;;;;;;;1.87;0.47;;;23.60;99.90;;;;;;5074208;28;20236;-68
2022/04/14 02:14:17;;;;;;;4.20;0.83;;;23.20;99.90;;;;;;5072965;28;20518;-68
2022/04/14 02:16:45;;;;;;;1.83;0.60;;;22.90;99.90;;;;;;5074217;28;20223;-68
2022/04/14 02:19:12;;;;;;;2.50;0.53;;;22.80;99.90;;;;;;5074187;28;20172;-68
2022/04/14 02:21:40;;;;;;;3.10;0.70;;;22.70;99.90;;;;;;5074175;28;20492;-68
2022/04/14 02:24:08;;;;;;;4.30;0.93;;;22.60;99.90;;;;;;5072766;28;20236;-68
2022/04/14 02:26:35;;;;;;;1.47;0.50;;;22.50;99.90;;;;;;5074013;28;20182;-68
2022/04/14 02:29:03;;;;;;;2.73;0.97;;;22.40;99.90;;;;;;5073934;28;20224;-68
2022/04/14 02:31:31;;;;;;;4.87;1.00;;;22.20;99.90;;;;;;5073850;28;20195;-68
2022/04/14 02:33:58;;;;;;;1.87;0.70;;;22.20;99.90;;;;;;5074144;28;20175;-68
2022/04/14 02:36:26;;;;;;;2.60;0.90;;;22.30;99.90;;;;;;5069414;28;20178;-68
2022/04/14 02:38:54;;;;;;;1.23;0.50;;;22.50;99.90;;;;;;5060077;28;20344;-68
2022/04/14 02:41:21;;;;;;;1.83;0.70;;;22.70;99.90;;;;;;5054733;28;20176;-67
2022/04/14 02:43:50;;;;;;;1.30;0.70;;;23.00;99.90;;;;;;5060327;28;20187;-68
2022/04/14 02:46:17;;;;;;;2.53;0.80;;;23.30;99.90;;;;;;5060325;28;20192;-68
2022/04/14 02:48:45;;;;;;;3.13;0.70;;;23.60;99.90;;;;;;5053423;28;20217;-68
2022/04/14 02:51:13;;;;;;;4.60;0.80;;;23.80;99.90;;;;;;5070220;28;20707;-67
2022/04/14 02:53:40;;;;;;;2.30;0.83;;;24.00;99.90;;;;;;5087997;28;20260;-68
2022/04/14 02:56:09;;;;;;;3.83;1.07;;;23.80;99.90;;;;;;5093666;28;20250;-68
2022/04/14 02:58:37;;;;;;;4.07;0.53;;;23.70;99.90;;;;;;5093651;28;20187;-68
2022/04/14 03:01:05;;;;;;;5.27;1.20;;;24.40;99.90;;;;;;5093487;28;20557;-68
2022/04/14 03:03:33;;;;;;;2.73;0.63;;;25.10;99.90;;;;;;5093697;28;20606;-68
2022/04/14 03:06:00;;;;;;;1.37;0.50;;;25.70;99.90;;;;;;5093491;28;20275;-68
2022/04/14 03:08:28;;;;;;;3.63;0.67;;;26.20;99.90;;;;;;5092499;28;20171;-68
2022/04/14 03:10:56;;;;;;;1.77;0.60;;;26.80;99.90;;;;;;5093601;28;20207;-68
2022/04/14 03:13:24;;;;;;;3.50;0.63;;;26.80;99.90;;;;;;5093381;28;20568;-68
2022/04/14 03:15:52;;;;;;;5.03;0.50;;;27.00;99.90;;;;;;5093160;28;20268;-68
2022/04/14 03:18:20;;;;;;;1.57;0.60;;;27.30;99.90;;;;;;5084139;28;20215;-68
2022/04/14 03:20:47;;;;;;;2.43;0.70;;;27.30;99.90;;;;;;5064005;28;20175;-66
2022/04/14 03:23:15;;;;;;;4.47;0.97;;;27.80;99.90;;;;;;5066210;28;20226;-66
2022/04/14 03:25:44;;;;;;;1.17;0.50;;;27.50;99.90;;;;;;5051510;28;20230;-67
2022/04/14 03:28:12;;;;;;;2.80;1.10;;;27.70;99.90;;;;;;5060470;28;20600;-67
2022/04/14 03:30:39;;;;;;;2.10;0.70;;;28.20;99.90;;;;;;5058772;28;20517;-66
2022/04/14 03:33:07;;;;;;;2.93;0.60;;;28.80;99.90;;;;;;5051359;28;20220;-66
2022/04/14 03:35:35;;;;;;;2.63;0.70;;;28.50;99.90;;;;;;5052535;28;20176;-66
2022/04/14 03:38:02;;;;;;;3.57;1.43;;;28.40;99.90;;;;;;5069505;28;20279;-66
2022/04/14 03:40:30;;;;;;;2.57;0.60;;;27.20;99.90;;;;;;5066380;28;20216;-66
2022/04/14 03:42:58;;;;;;;4.37;0.90;;;25.80;99.90;;;;;;5071674;28;20178;-67
2022/04/14 03:45:25;;;;;;;4.13;0.80;;;24.70;99.90;;;;;;5059995;28;20184;-66
2022/04/14 03:47:53;;;;;;;5.83;0.90;;;23.90;99.90;;;;;;5051574;28;20528;-65
2022/04/14 03:50:21;;;;;;;1.60;0.70;;;23.40;99.90;;;;;;5064019;28;20188;-66
2022/04/14 03:52:49;;;;;;;1.63;0.83;;;23.10;99.90;;;;;;5070917;28;20219;-66
2022/04/14 03:55:16;;;;;;;2.30;0.73;;;22.90;99.90;;;;;;5071006;28;20205;-66
2022/04/14 03:57:44;;;;;;;3.13;0.90;;;23.30;99.90;;;;;;5071659;28;20179;-66
2022/04/14 04:00:12;;;;;;;3.23;0.80;;;23.80;99.90;;;;;;5052841;28;20185;-67
2022/04/14 04:02:40;;;;;;;3.43;0.53;;;24.00;99.90;;;;;;5051690;28;20173;-66
2022/04/14 04:05:09;;;;;;;2.20;0.67;;;24.00;99.90;;;;;;5051578;28;20173;-66
2022/04/14 04:07:36;;;;;;;2.13;0.70;;;24.70;99.90;;;;;;5054223;28;20173;-66
2022/04/14 04:10:05;;;;;;;2.13;0.50;;;25.20;99.90;;;;;;5053886;28;20188;-66
2022/04/14 04:12:33;;;;;;;2.87;0.70;;;24.90;99.90;;;;;;5069401;28;20218;-66
2022/04/14 04:15:01;;;;;;;2.00;0.50;;;25.20;99.90;;;;;;5070564;28;20634;-65
2022/04/14 04:17:29;;;;;;;5.23;0.40;;;25.50;99.90;;;;;;5071224;28;20199;-66
2022/04/14 04:19:56;;;;;;;2.67;0.67;;;25.30;99.90;;;;;;5064026;28;20180;-66
2022/04/14 04:22:24;;;;;;;2.50;0.50;;;26.00;99.90;;;;;;5069660;28;20187;-66
2022/04/14 04:24:52;;;;;;;3.00;0.80;;;26.30;99.90;;;;;;5074876;28;20217;-66
2022/04/14 04:27:20;;;;;;;3.93;0.70;;;26.40;99.90;;;;;;5074596;28;20172;-66
2022/04/14 04:29:47;;;;;;;2.13;0.73;;;25.30;99.90;;;;;;5068218;28;20180;-67
2022/04/14 04:32:15;;;;;;;3.20;0.70;;;24.50;99.90;;;;;;5074938;28;20219;-66
2022/04/14 04:34:43;;;;;;;5.10;0.70;;;23.90;99.90;;;;;;5074900;28;20237;-66
2022/04/14 04:37:10;;;;;;;4.13;0.73;;;23.30;99.90;;;;;;5070078;28;20384;-66
2022/04/14 04:39:38;;;;;;;2.93;0.60;;;22.90;99.90;;;;;;5066927;28;20197;-66
2022/04/14 04:42:06;;;;;;;4.23;0.57;;;22.60;99.90;;;;;;5074744;28;20211;-66
2022/04/14 04:44:34;;;;;;;5.33;0.83;;;22.50;99.90;;;;;;5073436;28;20196;-66
2022/04/14 04:47:01;;;;;;;3.53;0.97;;;22.40;99.90;;;;;;5074393;28;20182;-66
2022/04/14 04:49:29;;;;;;;3.53;0.70;;;22.50;99.90;;;;;;5074416;28;20215;-66
2022/04/14 04:51:59;;;;;;;3.03;0.73;;;23.10;99.90;;;;;;5076027;28;20237;-66
2022/04/14 04:54:27;;;;;;;3.13;0.40;;;23.70;99.90;;;;;;5063201;28;20274;-67
2022/04/14 04:56:55;;;;;;;2.70;0.57;;;24.20;99.90;;;;;;5054654;28;20176;-67
2022/04/14 04:59:23;;;;;;;2.43;0.63;;;24.40;99.90;;;;;;5064741;28;20237;-66
2022/04/14 05:01:51;;;;;;;4.33;0.70;;;24.60;99.90;;;;;;5064936;28;20187;-66
2022/04/14 05:04:19;;;;;;;1.67;0.57;;;24.40;99.90;;;;;;5072449;28;20569;-67
2022/04/14 05:06:47;;;;;;;0.70;0.57;;;24.60;99.90;;;;;;5073022;28;20233;-67
2022/04/14 05:09:16;;;;;;;1.67;0.43;;;24.90;99.90;;;;;;5061679;28;20188;-68
2022/04/14 05:11:44;;;;;;;2.13;0.40;;;25.30;99.90;;;;;;5054184;28;20212;-67
2022/04/14 05:14:12;;;;;;;1.23;0.60;;;25.20;99.90;;;;;;5054199;28;20196;-67
2022/04/14 05:16:39;;;;;;;6.33;1.20;;;25.20;99.90;;;;;;5065448;28;20231;-68
2022/04/14 05:19:07;;;;;;;4.53;0.57;;;25.40;99.90;;;;;;5073966;28;21009;-68
2022/04/14 05:21:35;;;;;;;1.43;0.60;;;25.80;99.90;;;;;;5073453;28;20563;-67
2022/04/14 05:24:03;;;;;;;5.13;1.10;;;25.60;99.90;;;;;;5073296;28;20172;-67
2022/04/14 05:26:31;;;;;;;2.97;0.47;;;25.30;99.90;;;;;;5065261;28;20267;-67
2022/04/14 05:28:58;;;;;;;5.73;0.90;;;24.90;99.90;;;;;;5053821;28;20215;-67
2022/04/14 05:31:27;;;;;;;2.07;0.60;;;25.00;99.90;;;;;;5052749;28;20179;-68
2022/04/14 05:33:54;;;;;;;1.37;0.50;;;24.90;99.90;;;;;;5053654;28;20183;-68
2022/04/14 05:36:22;;;;;;;1.77;0.50;;;24.60;99.90;;;;;;5053686;28;20176;-68
2022/04/14 05:38:50;;;;;;;1.90;0.53;;;24.40;99.90;;;;;;5053758;28;20169;-67
2022/04/14 05:41:18;;;;;;;4.60;0.60;;;24.30;99.90;;;;;;5053787;28;20667;-67
2022/04/14 05:43:46;;;;;;;3.17;0.80;;;24.40;99.90;;;;;;5053513;28;20188;-67
2022/04/14 05:46:13;;;;;;;2.37;0.80;;;24.40;99.90;;;;;;5053206;28;20173;-68
2022/04/14 05:48:41;;;;;;;5.07;1.00;;;24.40;99.90;;;;;;5053442;28;20183;-68
2022/04/14 05:51:09;;;;;;;1.73;0.50;;;24.50;99.90;;;;;;5053521;28;20539;-67
2022/04/14 05:53:36;;;;;;;1.73;0.43;;;24.30;99.90;;;;;;5053512;28;20181;-68
2022/04/14 05:56:04;;;;;;;3.20;0.80;;;24.50;99.90;;;;;;5053233;28;20267;-67
2022/04/14 05:58:32;;;;;;;2.17;0.80;;;24.80;99.90;;;;;;5053388;28;20219;-68
2022/04/14 06:01:00;;;;;;;2.37;0.87;;;24.90;99.90;;;;;;5053134;28;20217;-67
2022/04/14 06:03:27;;;;;;;3.47;0.80;;;24.80;99.90;;;;;;5053368;28;20180;-67
2022/04/14 06:05:55;;;;;;;6.63;1.00;;;25.00;99.90;;;;;;5053396;28;20273;-68
2022/04/14 06:08:23;;;;;;;5.10;0.60;;;25.00;99.90;;;;;;5053360;28;20176;-67
2022/04/14 06:10:50;;;;;;;4.63;0.90;;;24.60;99.90;;;;;;5053184;28;20235;-68
2022/04/14 06:13:18;;;;;;;3.03;0.60;;;24.40;99.90;;;;;;5053191;28;20216;-68
2022/04/14 06:15:46;;;;;;;5.07;0.50;;;24.20;99.90;;;;;;5052957;28;20232;-68
2022/04/14 06:18:13;;;;;;;3.93;0.73;;;24.00;99.90;;;;;;5052987;28;20190;-67
2022/04/14 06:20:41;;;;;;;1.03;0.50;;;23.60;99.90;;;;;;5053048;28;20597;-68
2022/04/14 06:23:10;;;;;;;1.87;0.63;;;23.50;99.90;;;;;;5053978;28;20199;-67
2022/04/14 06:25:38;;;;;;;3.63;0.70;;;23.30;99.90;;;;;;5053789;28;20195;-67
2022/04/14 06:28:07;;;;;;;1.80;0.53;;;23.10;99.90;;;;;;5053632;28;20184;-67
2022/04/14 06:30:35;;;;;;;1.77;0.83;;;22.90;99.90;;;;;;5054224;28;20715;-69
2022/04/14 06:33:04;;;;;;;3.53;0.60;;;22.80;99.90;;;;;;5059731;28;20219;-68
2022/04/14 06:35:32;;;;;;;2.63;0.50;;;22.60;99.90;;;;;;5072665;28;20267;-67
2022/04/14 06:38:00;;;;;;;1.90;0.60;;;22.60;99.90;;;;;;5072488;28;20176;-67
2022/04/14 06:40:28;;;;;;;1.90;0.60;;;22.60;99.90;;;;;;5072585;28;20279;-68
2022/04/14 06:42:56;;;;;;;2.00;0.70;;;22.60;99.90;;;;;;5072433;28;20252;-67
2022/04/14 06:45:23;;;;;;;2.03;0.40;;;22.50;99.90;;;;;;5072488;28;20207;-67
2022/04/14 06:47:52;;;;;;;3.07;0.60;;;22.80;99.90;;;;;;5072375;28;20179;-67
2022/04/14 06:50:19;;;;;;;2.47;1.00;;;22.80;99.90;;;;;;5072067;28;20183;-66
2022/04/14 06:52:47;;;;;;;2.73;0.60;;;22.80;99.90;;;;;;5072365;28;20218;-66
2022/04/14 06:55:16;;;;;;;3.47;0.70;;;22.80;99.90;;;;;;5072457;28;20179;-66
2022/04/14 06:57:44;;;;;;;2.80;0.50;;;22.60;99.90;;;;;;5072270;28;20278;-66
2022/04/14 07:00:12;;;;;;;4.13;0.87;;;22.20;99.90;;;;;;5072298;28;20609;-66
2022/04/14 07:02:52;;;;;;;4.63;0.50;;;21.90;99.90;;;;;;5072139;28;20180;-67
2022/04/14 07:05:20;;;;;;;2.47;0.50;;;21.70;99.90;;;;;;5072154;28;20570;-68
2022/04/14 07:07:49;;;;;;;6.33;0.70;;;21.50;99.90;;;;;;5072153;28;20176;-68
2022/04/14 07:10:17;;;;;;;5.93;0.80;;;21.40;99.90;;;;;;5052864;28;20180;-67
2022/04/14 07:12:46;;;;;;;3.50;0.70;;;21.40;99.90;;;;;;5070748;28;20290;-67
2022/04/14 07:15:14;;;;;;;3.30;0.50;;;21.30;99.90;;;;;;5070920;28;20257;-67
2022/04/14 07:17:42;;;;;;;3.23;0.90;;;21.20;99.90;;;;;;5069454;28;20335;-67
2022/04/14 07:20:10;;;;;;;4.40;0.80;;;21.10;99.90;;;;;;5071966;28;20187;-67
2022/04/14 07:22:50;;;;;;;4.00;0.90;;;21.00;99.90;;;;;;5071887;28;20688;-67
2022/04/14 07:25:18;;;;;;;3.23;0.77;;;20.90;99.90;;;;;;5071434;28;20658;-67
2022/04/14 07:27:46;;;;;;;4.10;0.70;;;20.80;99.90;;;;;;5071709;28;20180;-67
2022/04/14 07:30:13;;;;;;;2.57;0.73;;;20.80;99.90;;;;;;5071662;28;20210;-67
2022/04/14 07:32:45;;;;;;;4.83;0.83;;;20.70;99.90;;;;;;5071456;28;20658;-68
2022/04/14 07:35:18;;;;;;;3.83;1.00;;;20.70;99.90;;;;;;5070980;28;20168;-67
2022/04/14 07:37:46;;;;;;;6.07;1.10;;;20.60;99.90;;;;;;5071835;28;20183;-67
2022/04/14 07:40:14;;;;;;;2.40;0.97;;;20.50;99.90;;;;;;5071587;28;20551;-67
2022/04/14 07:42:44;;;;;;;6.20;0.93;;;20.50;99.90;;;;;;5056522;28;20200;-68
2022/04/14 07:45:13;;;;;;;4.03;1.07;;;20.40;99.90;;;;;;5070871;28;20635;-68
2022/04/14 07:47:43;;;;;;;3.50;0.90;;;20.30;99.90;;;;;;5070992;28;20185;-68
2022/04/14 07:50:12;;;;;;;4.03;1.03;;;20.20;99.90;;;;;;5071564;28;20255;-67
2022/04/14 07:52:59;;;;;;;5.80;1.27;;;20.20;99.90;;;;;;5071725;28;20230;-67
2022/04/14 07:55:30;;;;;;;4.37;1.00;;;20.10;99.90;;;;;;5074552;28;20186;-68
2022/04/14 07:58:05;;;;;;;4.23;1.13;;;20.10;99.90;;;;;;5075464;28;20180;-67
2022/04/14 08:00:34;;;;;;;3.83;0.97;;;20.00;99.90;;;;;;5075344;28;20661;-68
2022/04/14 08:03:03;;;;;;;3.03;0.90;;;19.90;99.90;;;;;;5074133;28;20188;-68
2022/04/14 08:05:43;;;;;;;4.13;1.20;;;19.80;99.90;;;;;;5075639;28;20633;-67
2022/04/14 08:08:12;;;;;;;3.63;1.30;;;19.80;99.90;;;;;;5067297;28;20187;-68
2022/04/14 08:10:40;;;;;;;4.90;1.17;;;19.70;99.90;;;;;;5075452;28;20176;-68
2022/04/14 08:13:07;;;;;;;4.03;1.40;;;19.60;99.90;;;;;;5073065;28;20660;-67
2022/04/14 08:15:35;;;;;;;5.90;2.03;;;19.50;99.90;;;;;;5060232;28;20623;-67
2022/04/14 08:18:03;;;;;;;3.20;1.50;;;19.40;99.90;;;;;;5074850;28;20192;-67
2022/04/14 08:20:30;;;;;;;4.90;1.60;;;19.30;99.90;;;;;;5074733;28;20231;-67
2022/04/14 08:22:59;;;;;;;6.57;1.30;;;19.20;99.90;;;;;;5075222;28;20274;-67
2022/04/14 08:25:29;;;;;;;6.40;1.70;;;19.20;99.90;;;;;;5075293;28;20646;-67
2022/04/14 08:27:58;;;;;;;12.03;4.00;;;19.10;99.90;;;;;;5090311;28;20177;-67
2022/04/14 08:30:28;;;;;;;4.27;2.23;;;19.00;99.90;;;;;;5090752;28;20222;-66
2022/04/14 08:32:57;;;;;;;6.87;2.03;;;19.00;99.90;;;;;;5078707;28;20238;-67
2022/04/14 08:35:26;;;;;;;6.03;2.13;;;18.90;99.90;;;;;;5070106;28;20212;-66
2022/04/14 08:37:53;;;;;;;4.73;1.70;;;18.80;99.90;;;;;;5064258;28;20184;-66
2022/04/14 08:40:22;;;;;;;8.43;1.40;;;18.70;99.90;;;;;;5072011;28;20181;-67
2022/04/14 08:43:09;;;;;;;4.50;2.13;;;18.60;99.90;;;;;;5090234;28;20180;-66
2022/04/14 08:45:44;;;;;;;5.97;1.93;;;18.50;99.90;;;;;;5071424;28;20680;-67
2022/04/14 08:48:13;;;;;;;6.87;2.40;;;18.40;99.90;;;;;;5058337;28;20255;-67
2022/04/14 08:50:44;;;;;;;6.93;2.20;;;18.40;99.90;;;;;;5060518;28;20238;-68
2022/04/14 08:53:12;;;;;;;12.60;5.23;;;18.30;99.90;;;;;;5074282;28;20210;-67
2022/04/14 08:55:42;;;;;;;8.53;5.13;;;18.20;99.90;;;;;;5074625;28;20228;-68
2022/04/14 08:58:14;;;;;;;13.87;7.83;;;18.20;99.90;;;;;;5074945;28;20176;-68
2022/04/14 09:00:42;;;;;;;11.53;6.07;;;18.10;99.90;;;;;;5065235;28;20229;-67
2022/04/14 09:03:09;;;;;;;26.30;10.80;;;18.00;99.90;;;;;;5054789;28;20201;-67
2022/04/14 09:05:38;;;;;;;11.63;5.50;;;18.00;99.90;;;;;;5060476;28;20184;-67
2022/04/14 09:08:07;;;;;;;15.07;6.30;;;17.90;99.90;;;;;;5073857;28;20294;-68
2022/04/14 09:10:35;;;;;;;15.03;6.23;;;17.80;99.90;;;;;;5106007;28;20187;-67
2022/04/14 09:13:03;;;;;;;5.03;2.20;;;17.80;99.90;;;;;;5074369;28;20211;-67
2022/04/14 09:15:30;;;;;;;4.53;2.50;;;17.80;99.90;;;;;;5072557;28;20235;-66
2022/04/14 09:17:58;;;;;;;5.90;2.47;;;17.70;99.90;;;;;;5074375;28;20305;-66
2022/04/14 09:20:37;;;;;;;5.93;1.73;;;17.70;99.90;;;;;;5054395;28;20200;-66
2022/04/14 09:23:20;;;;;;;5.13;2.10;;;17.60;99.90;;;;;;5054340;28;20203;-66
2022/04/14 09:26:04;;;;;;;5.13;2.37;;;17.60;99.90;;;;;;5054481;28;20179;-66
2022/04/14 09:28:31;;;;;;;5.83;2.07;;;17.50;99.90;;;;;;5052818;28;20203;-65
2022/04/14 09:31:10;;;;;;;8.17;2.23;;;17.50;99.90;;;;;;5054074;28;20234;-67
2022/04/14 09:33:49;;;;;;;4.20;2.20;;;17.40;99.90;;;;;;5054122;28;20212;-67
2022/04/14 09:36:17;;;;;;;3.17;1.60;;;17.30;99.90;;;;;;5054124;28;20544;-67
2022/04/14 09:38:58;;;;;;;5.47;2.07;;;17.30;99.90;;;;;;5054910;28;20184;-68
2022/04/14 09:41:32;;;;;;;5.23;2.20;;;17.30;99.90;;;;;;5073892;28;20250;-68
2022/04/14 09:44:02;;;;;;;6.63;2.20;;;17.20;99.90;;;;;;5073475;28;20517;-68
2022/04/14 09:46:30;;;;;;;7.77;2.40;;;17.20;99.90;;;;;;5053746;28;20193;-67
2022/04/14 09:49:08;;;;;;;6.70;2.20;;;17.10;99.90;;;;;;5056099;28;20196;-67
2022/04/14 09:51:43;;;;;;;7.50;2.63;;;17.00;99.90;;;;;;5073571;28;20203;-67
2022/04/14 09:54:17;;;;;;;4.17;2.10;;;17.00;99.90;;;;;;5071664;28;20192;-67
2022/04/14 09:56:54;;;;;;;9.87;2.73;;;17.00;99.90;;;;;;5056082;28;20191;-67
2022/04/14 09:59:29;;;;;;;7.37;2.57;;;17.00;99.90;;;;;;5053504;28;20192;-67
2022/04/14 10:02:12;;;;;;;9.33;2.30;;;17.00;99.90;;;;;;5069878;28;20178;-67
2022/04/14 10:04:42;;;;;;;4.03;2.10;;;16.90;99.90;;;;;;5063576;28;20177;-67
2022/04/14 10:07:13;;;;;;;4.93;1.83;;;16.90;99.90;;;;;;5053520;28;20733;-67
2022/04/14 10:09:42;;;;;;;5.67;2.40;;;16.80;99.90;;;;;;5061290;28;20204;-67
2022/04/14 10:12:25;;;;;;;6.00;2.30;;;16.80;99.90;;;;;;5073211;28;20751;-67
2022/04/14 10:14:58;;;;;;;6.40;3.17;;;16.80;99.90;;;;;;5071790;28;20611;-67
2022/04/14 10:17:27;;;;;;;6.60;2.43;;;16.80;99.90;;;;;;5064226;28;20192;-67
2022/04/14 10:19:54;;;;;;;10.77;3.70;;;16.80;99.90;;;;;;5062267;28;20180;-67
2022/04/14 10:22:23;;;;;;;4.17;2.50;;;16.80;99.90;;;;;;5073276;28;20175;-67
2022/04/14 10:24:55;;;;;;;8.53;2.77;;;16.80;99.90;;;;;;5073997;28;20675;-67
2022/04/14 10:27:23;;;;;;;9.70;2.93;;;16.80;99.90;;;;;;5060373;28;20203;-67
2022/04/14 10:29:50;;;;;;;10.07;3.00;;;16.90;99.90;;;;;;5058831;28;20184;-67
2022/04/14 10:32:19;;;;;;;4.20;2.43;;;16.90;99.90;;;;;;5073515;28;20294;-67
2022/04/14 10:34:47;;;;;;;9.80;3.60;;;17.00;99.90;;;;;;5070350;28;20183;-66
2022/04/14 10:37:43;;;;;;;11.33;3.47;;;17.00;99.90;;;;;;5073056;28;20179;-66
2022/04/14 10:40:12;;;;;;;11.40;3.60;;;17.10;99.90;;;;;;5062829;28;20207;-67
2022/04/14 10:42:47;;;;;;;9.13;3.13;;;17.10;99.90;;;;;;5072689;28;20176;-68
2022/04/14 10:45:23;;;;;;;6.80;2.87;;;17.30;99.90;;;;;;5071968;28;20637;-68
2022/04/14 10:48:00;;;;;;;7.30;2.93;;;17.40;99.90;;;;;;5052443;28;20180;-68
2022/04/14 10:50:27;;;;;;;7.83;3.03;;;17.40;99.90;;;;;;5063942;28;20711;-66
2022/04/14 10:53:13;;;;;;;7.73;2.87;;;17.50;99.90;;;;;;5070130;28;20254;-67
2022/04/14 10:55:50;;;;;;;8.17;3.23;;;17.50;99.90;;;;;;5060097;28;20210;-69
2022/04/14 10:58:36;;;;;;;11.47;4.27;;;17.60;99.90;;;;;;5059831;28;20191;-70
2022/04/14 11:01:04;;;;;;;13.50;3.27;;;17.60;99.90;;;;;;5052942;28;20177;-70
2022/04/14 11:03:54;;;;;;;6.87;3.00;;;17.50;99.90;;;;;;5071131;28;20183;-68
2022/04/14 11:06:50;;;;;;;13.57;3.10;;;17.60;99.90;;;;;;5072072;28;20195;-68
2022/04/14 11:09:39;;;;;;;6.20;2.93;;;17.60;99.90;;;;;;5066757;28;20235;-68
2022/04/14 11:12:14;;;;;;;8.00;3.07;;;17.50;99.90;;;;;;5052086;28;20204;-69
2022/04/14 11:14:52;;;;;;;7.03;3.20;;;17.40;99.90;;;;;;5057921;28;20193;-69
2022/04/14 11:17:38;;;;;;;9.77;2.93;;;17.40;99.90;;;;;;5057910;28;20236;-69
2022/04/14 11:20:36;;;;;;;4.60;2.70;;;17.20;99.90;;;;;;5062131;28;20583;-68
2022/04/14 11:23:04;;;;;;;7.30;3.10;;;17.20;99.90;;;;;;5053209;28;20254;-70
2022/04/14 11:28:20;;;;;;;7.13;2.93;;;17.10;99.90;;;;;;5071813;28;20266;-69
2022/04/14 11:30:52;;;;;;;7.97;3.27;;;17.10;99.90;;;;;;5072152;28;20649;-69
2022/04/14 11:33:28;;;;;;;8.60;2.97;;;17.10;99.90;;;;;;5073162;28;20680;-68
2022/04/14 11:36:07;;;;;;;4.70;3.03;;;17.00;99.90;;;;;;5072935;28;20237;-68
2022/04/14 11:38:57;;;;;;;8.53;3.17;;;17.00;99.90;;;;;;5073436;28;20175;-70
2022/04/14 11:41:38;;;;;;;6.43;3.03;;;17.10;99.90;;;;;;5053368;28;20209;-68
2022/04/14 11:44:09;;;;;;;8.93;3.10;;;17.10;99.90;;;;;;5053272;28;20172;-69
2022/04/14 11:46:38;;;;;;;10.50;3.00;;;17.20;99.90;;;;;;5053519;28;20168;-68
2022/04/14 11:49:09;;;;;;;6.23;3.10;;;17.20;99.90;;;;;;5053797;28;20645;-69
2022/04/14 11:52:05;;;;;;;6.60;2.83;;;17.30;99.90;;;;;;5072961;28;20172;-68
2022/04/14 11:54:37;;;;;;;10.13;3.20;;;17.40;99.90;;;;;;5068401;28;20188;-70
2022/04/14 11:57:11;;;;;;;6.33;2.63;;;17.40;99.90;;;;;;5073142;28;20622;-68
2022/04/14 11:59:47;;;;;;;8.40;2.80;;;17.40;99.90;;;;;;5071640;28;20184;-67
2022/04/14 12:02:16;;;;;;;8.93;3.70;;;17.40;99.90;;;;;;5072868;28;20171;-68
2022/04/14 12:04:45;;;;;;;8.20;2.97;;;17.50;99.90;;;;;;5071527;28;20660;-68
2022/04/14 12:07:13;;;;;;;13.50;3.23;;;17.50;99.90;;;;;;5054305;28;20204;-69
2022/04/14 12:09:41;;;;;;;5.60;2.73;;;17.40;99.90;;;;;;5059385;28;20192;-67
2022/04/14 12:12:17;;;;;;;4.67;2.83;;;17.40;99.90;;;;;;5070780;28;20196;-68
2022/04/14 12:14:50;;;;;;;8.50;2.93;;;17.40;99.90;;;;;;5064478;28;20276;-68
2022/04/14 12:17:22;;;;;;;4.17;2.53;;;17.40;99.90;;;;;;5070596;28;20222;-69
2022/04/14 12:19:58;;;;;;;5.00;2.90;;;17.30;99.90;;;;;;5070492;28;20210;-69
2022/04/14 12:22:28;;;;;;;8.50;3.50;;;17.30;99.90;;;;;;5070994;28;20547;-68
2022/04/14 12:25:02;;;;;;;7.57;2.97;;;17.30;99.90;;;;;;5070057;28;20215;-69
2022/04/14 12:27:37;;;;;;;8.97;3.37;;;17.20;99.90;;;;;;5060055;28;20185;-68
2022/04/14 12:30:08;;;;;;;4.93;2.97;;;17.10;99.90;;;;;;5070847;28;20285;-68
2022/04/14 12:32:36;;;;;;;7.73;3.47;;;17.10;99.90;;;;;;5053051;28;20220;-68
2022/04/14 12:35:08;;;;;;;8.80;3.23;;;17.00;99.90;;;;;;5062413;28;20660;-68
2022/04/14 12:37:38;;;;;;;6.33;2.70;;;17.00;99.90;;;;;;5072575;28;20221;-67
2022/04/14 12:40:13;;;;;;;11.77;3.17;;;16.90;99.90;;;;;;5054735;28;20240;-67
2022/04/14 12:42:42;;;;;;;11.00;3.60;;;16.90;99.90;;;;;;5056222;28;20225;-68
2022/04/14 12:45:14;;;;;;;9.20;2.73;;;16.90;99.90;;;;;;5056166;28;20260;-67
2022/04/14 12:47:46;;;;;;;6.90;3.10;;;16.90;99.90;;;;;;5056212;28;20181;-67
2022/04/14 12:50:22;;;;;;;7.27;3.50;;;16.90;99.90;;;;;;5074733;28;20187;-68
2022/04/14 12:52:55;;;;;;;7.03;2.80;;;16.80;99.90;;;;;;5074483;28;20204;-68
2022/04/14 12:55:32;;;;;;;6.73;2.47;;;16.80;99.90;;;;;;5072906;28;20192;-68
2022/04/14 12:58:13;;;;;;;9.17;2.90;;;16.80;99.90;;;;;;5055651;28;20179;-67
2022/04/14 13:00:41;;;;;;;8.53;2.70;;;16.80;99.90;;;;;;5069339;28;20195;-67
2022/04/14 13:03:19;;;;;;;10.77;2.73;;;16.80;99.90;;;;;;5056313;28;20523;-67